Time;durP1;ratioP1;P1;durP2;ratioP2;P2;SDS_P1;SDS_P2;PMS_P1;PMS_P2;Temp;Humidity;BMP_temperature;BMP_pressure;BME280_temperature;BME280_humidity;BME280_pressure;Samples;Min_cycle;Max_cycle;Signal;HPM_P1;HPM_P2
2023/09/01 00:00:43;;;;;;;4.43;2.47;;;;;;;14.96;81.76;95411.59;4977083;28;20199;-80
2023/09/01 00:03:08;;;;;;;4.63;2.43;;;;;;;14.89;82.38;95404.63;4977945;28;20220;-81
2023/09/01 00:05:34;;;;;;;4.73;2.30;;;;;;;14.85;83.63;95395.53;4980795;28;20640;-82
2023/09/01 00:07:59;;;;;;;4.33;2.17;;;;;;;14.70;84.55;95406.75;4991045;28;20638;-81
2023/09/01 00:10:25;;;;;;;5.33;2.17;;;;;;;14.79;85.22;95404.88;5004928;28;20208;-83
2023/09/01 00:12:50;;;;;;;3.97;2.70;;;;;;;14.99;84.23;95410.41;5007880;28;20173;-82
2023/09/01 00:15:15;;;;;;;3.33;2.37;;;;;;;14.89;84.80;95405.44;5005355;28;20196;-83
2023/09/01 00:17:41;;;;;;;3.73;2.40;;;;;;;14.82;85.25;95409.75;5011846;28;20232;-83
2023/09/01 00:20:07;;;;;;;8.27;3.17;;;;;;;14.71;86.22;95405.75;5009154;28;20239;-82
2023/09/01 00:22:32;;;;;;;6.77;2.77;;;;;;;14.80;86.02;95396.03;4979746;28;20258;-81
2023/09/01 00:24:57;;;;;;;7.60;2.60;;;;;;;14.63;87.68;95400.59;4994156;28;20188;-82
2023/09/01 00:27:22;;;;;;;5.93;2.50;;;;;;;14.70;87.80;95395.47;4984225;28;20256;-82
2023/09/01 00:29:48;;;;;;;3.73;2.47;;;;;;;14.80;87.84;95393.44;4984823;28;20582;-81
2023/09/01 00:32:13;;;;;;;5.30;2.70;;;;;;;14.58;89.45;95391.69;4985863;28;20196;-81
2023/09/01 00:34:38;;;;;;;5.97;2.90;;;;;;;14.56;90.01;95388.41;4988350;28;20630;-82
2023/09/01 00:37:04;;;;;;;4.93;2.63;;;;;;;14.43;91.00;95388.97;4976911;28;20187;-81
2023/09/01 00:39:29;;;;;;;4.57;2.43;;;;;;;14.70;89.85;95390.25;4978213;28;20303;-81
2023/09/01 00:41:54;;;;;;;7.00;2.50;;;;;;;14.50;91.42;95392.53;4977447;28;20188;-82
2023/09/01 00:44:21;;;;;;;4.03;2.43;;;;;;;14.50;91.17;95389.94;4981102;28;20183;-82
2023/09/01 00:46:46;;;;;;;5.17;2.80;;;;;;;14.47;92.01;95386.84;4982795;28;20188;-82
2023/09/01 00:49:12;;;;;;;4.83;2.47;;;;;;;14.51;91.67;95391.56;4987061;28;20577;-79
2023/09/01 00:51:38;;;;;;;4.63;2.30;;;;;;;14.62;91.30;95387.72;4971302;28;20198;-81
2023/09/01 00:54:03;;;;;;;5.13;2.33;;;;;;;14.69;91.06;95384.22;4983435;28;20290;-82
2023/09/01 00:56:29;;;;;;;6.03;2.27;;;;;;;14.47;93.79;95384.22;4978096;28;20199;-81
2023/09/01 00:58:54;;;;;;;4.50;2.37;;;;;;;14.23;96.25;95393.03;4976224;28;20208;-82
2023/09/01 01:01:20;;;;;;;3.63;2.40;;;;;;;14.26;97.86;95383.06;4976902;28;20208;-82
2023/09/01 01:03:47;;;;;;;3.63;2.37;;;;;;;14.46;97.22;95388.66;4981368;28;20549;-81
2023/09/01 01:06:18;;;;;;;5.33;2.37;;;;;;;14.34;98.20;95380.38;4988686;28;20184;-82
2023/09/01 01:09:00;;;;;;;4.57;2.37;;;;;;;14.22;100.00;95388.78;4992532;28;20242;-82
2023/09/01 01:11:36;;;;;;;3.90;2.40;;;;;;;14.44;98.82;95394.03;4986755;28;20223;-81
2023/09/01 01:14:07;;;;;;;6.37;2.90;;;;;;;14.53;98.41;95386.16;4966006;28;20605;-80
2023/09/01 01:16:33;;;;;;;4.10;2.40;;;;;;;14.34;99.51;95396.06;4985617;28;20709;-80
2023/09/01 01:19:04;;;;;;;2.87;2.53;;;;;;;14.22;100.00;95386.97;4975136;28;20295;-81
2023/09/01 01:21:33;;;;;;;4.13;2.53;;;;;;;14.34;100.00;95382.19;4962828;28;20184;-81
2023/09/01 01:23:58;;;;;;;3.93;2.07;;;;;;;14.38;100.00;95375.59;4985328;28;20213;-81
2023/09/01 01:26:26;;;;;;;2.50;2.30;;;;;;;14.41;100.00;95381.31;4980095;28;20633;-81
2023/09/01 01:28:52;;;;;;;3.30;2.50;;;;;;;14.38;100.00;95375.59;4983352;28;20253;-80
2023/09/01 01:31:18;;;;;;;3.33;2.60;;;;;;;14.31;100.00;95375.53;4981921;28;20215;-81
2023/09/01 01:33:55;;;;;;;2.80;2.60;;;;;;;14.38;100.00;95371.19;4981009;28;20208;-81
2023/09/01 01:36:49;;;;;;;4.87;2.57;;;;;;;14.40;100.00;95369.25;4990448;28;20233;-80
2023/09/01 01:39:33;;;;;;;3.37;2.37;;;;;;;14.27;100.00;95379.44;4987066;28;20219;-81
2023/09/01 01:42:10;;;;;;;3.57;2.40;;;;;;;14.41;100.00;95376.09;4962303;28;20736;-80
2023/09/01 01:44:37;;;;;;;3.23;2.57;;;;;;;14.55;100.00;95384.97;4983422;28;20262;-80
2023/09/01 01:47:04;;;;;;;2.80;2.47;;;;;;;14.63;100.00;95386.72;4973172;28;20196;-81
2023/09/01 01:49:29;;;;;;;4.90;2.67;;;;;;;14.57;100.00;95380.38;4964899;28;20200;-79
2023/09/01 01:51:55;;;;;;;3.03;2.60;;;;;;;14.58;100.00;95373.38;4985073;28;20563;-80
2023/09/01 01:54:20;;;;;;;4.07;2.60;;;;;;;14.77;100.00;95378.09;4981613;28;20251;-80
2023/09/01 01:56:45;;;;;;;2.70;2.43;;;;;;;14.69;100.00;95372.94;4981088;28;20576;-80
2023/09/01 01:59:11;;;;;;;3.87;2.47;;;;;;;14.70;100.00;95369.34;4990285;28;20247;-80
2023/09/01 02:01:36;;;;;;;4.00;2.13;;;;;;;14.53;100.00;95376.50;4973526;28;20223;-80
2023/09/01 02:04:05;;;;;;;3.73;2.40;;;;;;;14.64;100.00;95375.28;4974579;28;20712;-80
2023/09/01 02:06:30;;;;;;;4.70;2.40;;;;;;;14.64;100.00;95377.88;4997587;28;20220;-81
2023/09/01 02:08:55;;;;;;;3.27;1.97;;;;;;;14.72;100.00;95389.09;4963052;28;20666;-80
2023/09/01 02:11:21;;;;;;;3.13;2.33;;;;;;;14.76;100.00;95386.94;5015790;28;20184;-82
2023/09/01 02:13:46;;;;;;;2.77;2.40;;;;;;;14.84;100.00;95384.25;4996144;28;20268;-82
2023/09/01 02:16:11;;;;;;;3.20;2.10;;;;;;;14.93;100.00;95380.56;5009017;28;20176;-82
2023/09/01 02:18:37;;;;;;;5.33;2.40;;;;;;;14.96;100.00;95379.41;4997713;28;20279;-82
2023/09/01 02:21:02;;;;;;;5.17;2.40;;;;;;;14.98;100.00;95378.22;4994735;28;20196;-82
2023/09/01 02:23:28;;;;;;;3.23;2.27;;;;;;;14.99;100.00;95379.03;4989288;28;20188;-82
2023/09/01 02:25:53;;;;;;;4.17;2.50;;;;;;;15.01;100.00;95371.81;4990853;28;20279;-81
2023/09/01 02:28:18;;;;;;;3.40;2.30;;;;;;;15.01;100.00;95372.63;4989026;28;20215;-80
2023/09/01 02:30:44;;;;;;;4.03;2.20;;;;;;;15.08;100.00;95377.97;4997837;28;20215;-83
2023/09/01 02:33:09;;;;;;;3.03;1.90;;;;;;;15.02;100.00;95374.28;4982557;28;20195;-81
2023/09/01 02:35:44;;;;;;;3.22;2.08;;;;;;;15.13;100.00;95375.63;4983790;28;20193;-81
2023/09/01 02:38:12;;;;;;;4.10;2.60;;;;;;;15.13;100.00;95391.31;4981343;28;20191;-81
2023/09/01 02:40:39;;;;;;;4.15;2.15;;;;;;;15.14;100.00;95386.91;5001005;28;20290;-81
2023/09/01 02:43:04;;;;;;;3.42;1.90;;;;;;;15.20;100.00;95394.03;4992399;28;20223;-80
2023/09/01 02:45:30;;;;;;;3.77;1.97;;;;;;;15.29;100.00;95388.53;4990488;28;20199;-80
2023/09/01 02:47:55;;;;;;;4.00;2.05;;;;;;;15.33;100.00;95391.59;4974485;28;20211;-80
2023/09/01 02:50:20;;;;;;;2.30;1.85;;;;;;;15.36;100.00;95396.44;4978431;28;20196;-81
2023/09/01 02:52:45;;;;;;;3.58;2.28;;;;;;;15.41;100.00;95406.41;4996596;28;20574;-80
2023/09/01 02:55:12;;;;;;;4.25;2.25;;;;;;;15.38;100.00;95404.97;4997947;28;20626;-81
2023/09/01 02:57:37;;;;;;;3.30;2.00;;;;;;;15.45;100.00;95402.41;4977707;28;20189;-81
2023/09/01 03:00:14;;;;;;;4.13;2.03;;;;;;;15.44;100.00;95409.44;4975052;28;20696;-80
2023/09/01 03:02:40;;;;;;;2.33;1.90;;;;;;;15.42;100.00;95408.81;4994424;28;20302;-81
2023/09/01 03:05:08;;;;;;;2.75;2.20;;;;;;;15.22;100.00;95405.13;4989970;28;20195;-82
2023/09/01 03:07:33;;;;;;;2.78;1.98;;;;;;;15.27;100.00;95413.22;4972033;28;20584;-81
2023/09/01 03:09:58;;;;;;;4.03;1.80;;;;;;;15.29;100.00;95409.47;4984428;28;20231;-80
2023/09/01 03:12:24;;;;;;;1.98;1.77;;;;;;;15.35;100.00;95413.16;4981427;28;20192;-81
2023/09/01 03:14:49;;;;;;;3.90;2.10;;;;;;;15.36;100.00;95406.91;4980041;28;20208;-81
2023/09/01 03:17:14;;;;;;;2.08;1.80;;;;;;;15.34;100.00;95401.06;4987301;28;20595;-80
2023/09/01 03:19:40;;;;;;;2.60;1.83;;;;;;;15.44;100.00;95398.16;4993579;28;20285;-80
2023/09/01 03:22:05;;;;;;;2.13;1.67;;;;;;;15.33;100.00;95396.00;4990844;28;20187;-80
2023/09/01 03:24:30;;;;;;;4.80;1.95;;;;;;;15.32;100.00;95395.19;5005307;28;20280;-81
2023/09/01 03:26:56;;;;;;;2.93;1.80;;;;;;;15.36;100.00;95400.88;4991554;28;20568;-81
2023/09/01 03:29:21;;;;;;;2.70;1.90;;;;;;;15.42;100.00;95406.22;4984247;28;20206;-82
2023/09/01 03:31:46;;;;;;;2.50;2.03;;;;;;;15.47;100.00;95397.81;4981718;28;20239;-81
2023/09/01 03:34:11;;;;;;;4.80;2.23;;;;;;;15.36;100.00;95400.88;4992552;28;20302;-81
2023/09/01 03:36:37;;;;;;;4.40;2.35;;;;;;;15.46;100.00;95398.78;4980165;28;20206;-81
2023/09/01 03:39:07;;;;;;;2.70;1.73;;;;;;;15.46;100.00;95399.63;4999344;28;20234;-82
2023/09/01 03:41:32;;;;;;;2.90;1.80;;;;;;;15.48;100.00;95400.25;4989308;28;20183;-81
2023/09/01 03:43:57;;;;;;;2.10;1.77;;;;;;;15.53;100.00;95387.41;4988441;28;20184;-82
2023/09/01 03:46:23;;;;;;;2.42;1.70;;;;;;;15.46;100.00;95398.78;4996039;28;20192;-82
2023/09/01 03:48:48;;;;;;;1.63;1.50;;;;;;;15.55;100.00;95395.94;5002813;28;20759;-82
2023/09/01 03:51:17;;;;;;;5.03;1.95;;;;;;;15.49;100.00;95396.66;5002053;28;20183;-82
2023/09/01 03:53:43;;;;;;;2.92;1.52;;;;;;;15.58;99.78;95390.31;5006820;28;20207;-82
2023/09/01 03:56:16;;;;;;;3.00;1.52;;;;;;;15.58;100.00;95389.50;4982561;28;20227;-82
2023/09/01 03:58:41;;;;;;;2.35;1.70;;;;;;;15.58;99.74;95392.13;4994180;28;20693;-82
2023/09/01 04:01:10;;;;;;;3.03;1.55;;;;;;;15.50;100.00;95387.00;4982620;28;20211;-81
2023/09/01 04:03:35;;;;;;;3.65;1.50;;;;;;;15.45;100.00;95394.56;4985592;28;20645;-81
2023/09/01 04:06:01;;;;;;;3.45;1.50;;;;;;;15.44;100.00;95395.56;4985625;28;20191;-80
2023/09/01 04:08:26;;;;;;;1.85;1.63;;;;;;;15.61;99.87;95401.44;4989234;28;20224;-80
2023/09/01 04:10:52;;;;;;;2.27;1.40;;;;;;;15.57;100.00;95403.59;4992245;28;20195;-80
2023/09/01 04:13:17;;;;;;;2.92;2.00;;;;;;;15.54;100.00;95398.69;4973770;28;20274;-80
2023/09/01 04:15:43;;;;;;;3.78;1.45;;;;;;;15.46;100.00;95415.34;4989991;28;20192;-81
2023/09/01 04:18:08;;;;;;;2.10;1.40;;;;;;;15.59;99.86;95407.66;4989561;28;20262;-80
2023/09/01 04:20:33;;;;;;;1.90;1.50;;;;;;;15.41;100.00;95409.81;4970457;28;20857;-80
2023/09/01 04:22:59;;;;;;;4.05;1.67;;;;;;;15.60;100.00;95403.22;5000733;28;20192;-80
2023/09/01 04:25:24;;;;;;;2.47;1.73;;;;;;;15.76;98.57;95412.72;4971493;28;20202;-81
2023/09/01 04:28:08;;;;;;;2.35;1.65;;;;;;;15.64;99.45;95406.34;4989610;28;20176;-85
2023/09/01 04:30:36;;;;;;;2.13;1.50;;;;;;;15.72;98.94;95406.22;4993287;28;20195;-84
2023/09/01 04:33:17;;;;;;;3.08;1.70;;;;;;;15.68;99.00;95402.34;4995373;28;20189;-84
2023/09/01 04:35:43;;;;;;;3.72;1.83;;;;;;;15.68;98.20;95397.13;4981337;28;20193;-84
2023/09/01 04:38:14;;;;;;;3.95;1.80;;;;;;;15.54;100.00;95407.38;4970109;28;20202;-86
2023/09/01 04:40:44;;;;;;;1.92;1.70;;;;;;;15.65;99.34;95403.53;4973878;28;20200;-84
2023/09/01 04:43:10;;;;;;;2.85;1.40;;;;;;;15.67;99.41;95401.53;4967563;28;20195;-85
2023/09/01 04:45:38;;;;;;;3.05;1.85;;;;;;;15.77;98.33;95401.25;4992762;28;20223;-84
2023/09/01 04:48:07;;;;;;;4.43;1.60;;;;;;;15.76;98.64;95394.41;4976537;28;20721;-84
2023/09/01 04:50:48;;;;;;;3.08;1.50;;;;;;;15.50;100.00;95400.88;5008717;28;20206;-84
2023/09/01 04:53:20;;;;;;;4.32;1.60;;;;;;;15.75;98.34;95411.09;4969800;28;20215;-84
2023/09/01 04:55:50;;;;;;;3.83;1.58;;;;;;;15.71;98.91;95413.25;4981335;28;20235;-85
2023/09/01 04:58:23;;;;;;;2.30;1.50;;;;;;;15.78;99.10;95421.19;4980076;28;20331;-86
2023/09/01 05:01:06;;;;;;;2.38;1.60;;;;;;;15.82;97.98;95431.13;4977090;28;20660;-84
2023/09/01 05:04:11;;;;;;;;;;;;;;;;;;;;;
2023/09/01 05:10:50;;;;;;;2.35;1.45;;;;;;;15.98;97.49;95437.13;4965037;28;20239;-85
2023/09/01 05:13:28;;;;;;;;;;;;;;;;;;;;;
2023/09/01 05:16:23;;;;;;;2.72;1.50;;;;;;;15.90;98.48;95434.63;4960305;28;20206;-83
2023/09/01 05:18:48;;;;;;;3.67;1.70;;;;;;;15.89;98.98;95425.97;4949109;28;20679;-86
2023/09/01 05:21:14;;;;;;;4.30;1.55;;;;;;;15.78;99.41;95423.81;4945682;28;20201;-80
2023/09/01 05:23:56;;;;;;;3.72;1.52;;;;;;;15.91;99.18;95438.88;4961701;28;20280;-84
2023/09/01 05:26:22;;;;;;;2.10;1.52;;;;;;;15.70;100.00;95444.84;4958615;28;20200;-83
2023/09/01 05:28:47;;;;;;;3.33;1.40;;;;;;;15.80;100.00;95454.03;4942402;28;20263;-84
2023/09/01 05:31:12;;;;;;;4.90;1.65;;;;;;;15.77;100.00;95448.38;4942028;28;20196;-83
2023/09/01 05:33:38;;;;;;;3.13;2.15;;;;;;;15.75;100.00;95447.75;4944047;28;20304;-83
2023/09/01 05:36:03;;;;;;;3.28;1.42;;;;;;;15.89;100.00;95448.72;4945168;28;20203;-83
2023/09/01 05:38:29;;;;;;;5.47;1.77;;;;;;;15.97;100.00;95452.03;4958358;28;20263;-84
2023/09/01 05:40:56;;;;;;;4.57;1.60;;;;;;;15.94;100.00;95460.28;4948918;28;20308;-84
2023/09/01 05:43:22;;;;;;;2.28;1.42;;;;;;;15.76;100.00;95465.88;4966108;28;20181;-84
2023/09/01 05:45:47;;;;;;;2.63;1.45;;;;;;;15.73;100.00;95475.94;4974252;28;20204;-84
2023/09/01 05:48:12;;;;;;;2.30;1.33;;;;;;;15.58;100.00;95460.19;4964288;28;20230;-79
2023/09/01 05:50:38;;;;;;;3.45;1.77;;;;;;;15.56;100.00;95468.22;4983116;28;20196;-83
2023/09/01 05:53:04;;;;;;;2.13;1.33;;;;;;;15.58;100.00;95473.25;4983211;28;20664;-81
2023/09/01 05:55:29;;;;;;;2.17;1.20;;;;;;;15.73;100.00;95468.88;4987562;28;20196;-81
2023/09/01 05:57:55;;;;;;;1.50;1.30;;;;;;;15.75;100.00;95481.78;4974362;28;20271;-81
2023/09/01 06:00:20;;;;;;;2.45;1.10;;;;;;;15.89;100.00;95486.19;4984296;28;20218;-81
2023/09/01 06:02:46;;;;;;;3.25;1.20;;;;;;;15.69;100.00;95485.94;4984383;28;20184;-81
2023/09/01 06:05:11;;;;;;;2.25;1.10;;;;;;;15.70;100.00;95482.31;4982506;28;20481;-80
2023/09/01 06:07:37;;;;;;;1.38;0.88;;;;;;;15.75;100.00;95487.03;4980571;28;20188;-80
2023/09/01 06:10:03;;;;;;;1.10;1.00;;;;;;;15.92;100.00;95491.06;4988967;28;20597;-81
2023/09/01 06:12:29;;;;;;;2.63;1.08;;;;;;;15.96;100.00;95483.66;4999302;28;20180;-81
2023/09/01 06:14:54;;;;;;;1.60;1.10;;;;;;;15.90;100.00;95493.03;4984637;28;20296;-85
2023/09/01 06:17:19;;;;;;;1.50;1.23;;;;;;;15.97;100.00;95480.03;4966142;28;20184;-84
2023/09/01 06:19:44;;;;;;;1.48;1.10;;;;;;;16.18;100.00;95487.16;4982381;28;20212;-84
2023/09/01 06:22:10;;;;;;;1.50;1.05;;;;;;;16.25;100.00;95491.47;4986116;28;20183;-81
2023/09/01 06:24:35;;;;;;;1.52;0.93;;;;;;;16.38;100.00;95496.88;4985244;28;20557;-81
2023/09/01 06:27:00;;;;;;;1.45;0.80;;;;;;;16.40;100.00;95496.69;4988584;28;20199;-82
2023/09/01 06:29:26;;;;;;;1.02;0.82;;;;;;;16.38;100.00;95502.13;4981719;28;20200;-81
2023/09/01 06:31:51;;;;;;;0.85;0.85;;;;;;;16.32;100.00;95496.78;4984555;28;20191;-81
2023/09/01 06:34:16;;;;;;;0.73;0.68;;;;;;;16.54;100.00;95501.09;4984774;28;20282;-81
2023/09/01 06:36:42;;;;;;;1.05;0.80;;;;;;;16.55;100.00;95501.91;4967197;28;20638;-80
2023/09/01 06:39:10;;;;;;;1.58;0.50;;;;;;;16.51;100.00;95500.63;4983070;28;20238;-83
2023/09/01 06:41:35;;;;;;;0.65;0.50;;;;;;;16.42;100.00;95505.16;4991738;28;20184;-83
2023/09/01 06:44:02;;;;;;;0.75;0.57;;;;;;;16.29;100.00;95508.47;4982886;28;20172;-84
2023/09/01 06:46:38;;;;;;;0.65;0.60;;;;;;;16.28;100.00;95511.28;4966174;28;20243;-85
2023/09/01 06:49:09;;;;;;;0.93;0.82;;;;;;;16.29;100.00;95503.22;4990724;28;20206;-85
2023/09/01 06:51:35;;;;;;;0.75;0.50;;;;;;;16.13;100.00;95493.75;4988305;28;20192;-86
2023/09/01 06:54:24;;;;;;;0.90;0.68;;;;;;;16.44;100.00;95500.56;4987975;28;20705;-85
2023/09/01 06:56:49;;;;;;;0.82;0.47;;;;;;;16.47;100.00;95494.94;4975436;28;20184;-85
2023/09/01 06:59:17;;;;;;;0.98;0.60;;;;;;;16.55;100.00;95492.22;4988123;28;20204;-85
2023/09/01 07:01:42;;;;;;;1.33;0.60;;;;;;;16.60;100.00;95492.47;4981802;28;20199;-84
2023/09/01 07:04:08;;;;;;;0.90;0.50;;;;;;;16.65;100.00;95490.09;4988138;28;20564;-84
2023/09/01 07:06:33;;;;;;;0.43;0.43;;;;;;;17.14;100.00;95488.53;4974561;28;20245;-83
2023/09/01 07:08:58;;;;;;;2.55;0.50;;;;;;;17.55;96.99;95493.91;4987407;28;20199;-82
2023/09/01 07:11:24;;;;;;;0.80;0.55;;;;;;;17.81;95.24;95488.84;4986442;28;20536;-82
2023/09/01 07:13:49;;;;;;;1.63;0.50;;;;;;;18.05;94.59;95499.91;4961021;28;20740;-82
2023/09/01 07:16:15;;;;;;;0.63;0.47;;;;;;;18.49;93.55;95491.56;4984140;28;20278;-84
2023/09/01 07:18:40;;;;;;;0.60;0.50;;;;;;;18.34;93.32;95499.59;4980475;28;20209;-83
2023/09/01 07:21:06;;;;;;;1.92;0.60;;;;;;;18.48;92.85;95505.75;4974389;28;20188;-83
2023/09/01 07:23:31;;;;;;;0.60;0.60;;;;;;;18.50;91.85;95510.78;4985562;28;20222;-82
2023/09/01 07:25:58;;;;;;;0.60;0.50;;;;;;;18.48;91.75;95515.44;4976213;28;20216;-83
2023/09/01 07:28:23;;;;;;;0.80;0.60;;;;;;;18.63;90.87;95516.06;4992932;28;20211;-82
2023/09/01 07:30:49;;;;;;;1.35;0.57;;;;;;;18.46;92.08;95517.44;4985423;28;20184;-82
2023/09/01 07:33:15;;;;;;;0.93;0.68;;;;;;;18.42;91.41;95519.66;4975511;28;20187;-84
2023/09/01 07:35:48;;;;;;;0.85;0.68;;;;;;;18.31;93.16;95522.84;4986593;28;20610;-84
2023/09/01 07:38:14;;;;;;;0.95;0.80;;;;;;;18.38;92.14;95521.88;4968341;28;20188;-83
2023/09/01 07:40:40;;;;;;;1.58;1.02;;;;;;;18.20;93.97;95524.22;4987335;28;20184;-82
2023/09/01 07:43:05;;;;;;;2.15;0.80;;;;;;;18.16;95.04;95522.19;4983759;28;20237;-82
2023/09/01 07:45:30;;;;;;;0.90;0.80;;;;;;;18.19;94.82;95525.22;4986252;28;20214;-82
2023/09/01 07:47:55;;;;;;;1.48;0.90;;;;;;;18.17;95.13;95537.75;4985397;28;20673;-80
2023/09/01 07:50:23;;;;;;;1.88;0.77;;;;;;;18.25;94.94;95531.53;4980383;28;20209;-79
2023/09/01 07:52:50;;;;;;;0.93;0.90;;;;;;;18.55;94.50;95532.88;4984159;28;20189;-81
2023/09/01 07:55:15;;;;;;;2.42;0.77;;;;;;;18.61;92.80;95532.06;4973701;28;20656;-83
2023/09/01 07:57:41;;;;;;;0.80;0.80;;;;;;;18.60;92.65;95540.97;4995124;28;20194;-83
2023/09/01 08:00:09;;;;;;;1.30;0.70;;;;;;;18.73;92.63;95539.41;4987656;28;20254;-82
2023/09/01 08:02:35;;;;;;;3.15;0.60;;;;;;;18.73;91.81;95544.66;4988791;28;20192;-84
2023/09/01 08:05:03;;;;;;;1.13;0.80;;;;;;;18.69;90.57;95539.00;4974492;28;20346;-82
2023/09/01 08:07:30;;;;;;;1.30;0.70;;;;;;;19.21;88.70;95537.47;4974155;28;20589;-82
2023/09/01 08:09:55;;;;;;;1.00;0.75;;;;;;;19.21;88.11;95540.13;4971263;28;20211;-83
2023/09/01 08:12:20;;;;;;;1.05;0.85;;;;;;;19.47;87.05;95540.13;4989100;28;20203;-83
2023/09/01 08:14:45;;;;;;;3.55;1.00;;;;;;;19.33;87.61;95546.41;4989207;28;20227;-81
2023/09/01 08:17:11;;;;;;;0.63;0.60;;;;;;;19.13;85.49;95550.84;4970623;28;20183;-81
2023/09/01 08:19:40;;;;;;;0.90;0.60;;;;;;;19.23;85.44;95549.44;4987659;28;20318;-83
2023/09/01 08:22:05;;;;;;;2.75;0.82;;;;;;;19.42;86.65;95557.53;4971756;28;20207;-84
2023/09/01 08:24:31;;;;;;;1.58;0.60;;;;;;;19.45;85.65;95557.16;4990343;28;20640;-81
2023/09/01 08:26:56;;;;;;;0.68;0.60;;;;;;;19.60;84.86;95555.13;4986049;28;20238;-84
2023/09/01 08:29:21;;;;;;;1.77;0.70;;;;;;;19.80;83.99;95560.41;4982748;28;20596;-83
2023/09/01 08:31:47;;;;;;;1.25;0.90;;;;;;;19.49;85.87;95558.34;4969141;28;20550;-82
2023/09/01 08:34:12;;;;;;;0.85;0.80;;;;;;;19.60;85.84;95559.59;4986861;28;20188;-82
2023/09/01 08:36:38;;;;;;;1.10;0.70;;;;;;;20.21;84.29;95559.31;4988779;28;20195;-81
2023/09/01 08:39:04;;;;;;;1.65;0.75;;;;;;;20.42;82.67;95553.78;4985910;28;20568;-80
2023/09/01 08:41:29;;;;;;;0.90;0.77;;;;;;;20.54;82.33;95549.50;4990782;28;20292;-81
2023/09/01 08:43:58;;;;;;;0.95;0.70;;;;;;;20.28;82.61;95557.47;4992465;28;20312;-81
2023/09/01 08:46:24;;;;;;;0.70;0.70;;;;;;;19.78;82.25;95549.25;4986865;28;20244;-79
2023/09/01 08:48:49;;;;;;;0.65;0.57;;;;;;;20.16;79.89;95554.66;4987299;28;20205;-80
2023/09/01 08:51:15;;;;;;;0.82;0.70;;;;;;;20.39;80.64;95551.53;4973565;28;20206;-80
2023/09/01 08:53:42;;;;;;;1.08;0.77;;;;;;;20.37;79.41;95561.50;4973893;28;20681;-82
2023/09/01 08:56:07;;;;;;;0.68;0.65;;;;;;;20.59;79.87;95560.25;4986896;28;20675;-81
2023/09/01 08:58:32;;;;;;;1.25;0.70;;;;;;;20.72;77.82;95559.34;4983796;28;20204;-81
2023/09/01 09:00:58;;;;;;;0.82;0.70;;;;;;;21.01;76.16;95560.63;4977614;28;20189;-81
2023/09/01 09:03:23;;;;;;;1.45;0.70;;;;;;;21.12;76.50;95561.81;4971200;28;20195;-80
2023/09/01 09:05:49;;;;;;;1.33;0.70;;;;;;;21.22;75.18;95556.84;4982139;28;20201;-80
2023/09/01 09:08:15;;;;;;;0.57;0.57;;;;;;;21.12;74.74;95559.16;4974633;28;20718;-81
2023/09/01 09:10:48;;;;;;;0.60;0.60;;;;;;;21.10;75.65;95563.81;4987356;28;20226;-81
2023/09/01 09:13:25;;;;;;;0.60;0.60;;;;;;;20.86;75.79;95557.47;4977396;28;20184;-81
2023/09/01 09:16:13;;;;;;;0.73;0.60;;;;;;;20.65;74.91;95561.22;4973715;28;20203;-81
2023/09/01 09:18:40;;;;;;;1.40;0.68;;;;;;;20.95;75.36;95561.50;4980871;28;20259;-81
2023/09/01 09:21:23;;;;;;;0.73;0.73;;;;;;;20.76;76.56;95559.75;4976646;28;20642;-79
2023/09/01 09:23:48;;;;;;;0.60;0.60;;;;;;;20.51;77.44;95562.31;4966398;28;20569;-81
2023/09/01 09:26:14;;;;;;;0.45;0.40;;;;;;;20.40;78.02;95557.63;4979801;28;20187;-79
2023/09/01 09:28:39;;;;;;;1.23;0.52;;;;;;;20.20;78.27;95561.13;4984240;28;20585;-82
2023/09/01 09:31:05;;;;;;;0.75;0.57;;;;;;;20.05;77.58;95566.66;4988480;28;20188;-81
2023/09/01 09:33:32;;;;;;;0.70;0.70;;;;;;;19.94;78.26;95569.91;4970031;28;20204;-80
2023/09/01 09:35:57;;;;;;;0.73;0.60;;;;;;;19.95;79.93;95575.97;4998878;28;20192;-83
2023/09/01 09:38:23;;;;;;;0.60;0.60;;;;;;;19.93;79.25;95565.66;4986173;28;20211;-81
2023/09/01 09:40:56;;;;;;;0.55;0.55;;;;;;;19.96;80.56;95575.78;4980915;28;20188;-80
2023/09/01 09:43:22;;;;;;;0.60;0.60;;;;;;;19.99;81.06;95575.38;4975009;28;20260;-82
2023/09/01 09:45:47;;;;;;;0.70;0.70;;;;;;;20.33;80.95;95578.78;4986888;28;20266;-80
2023/09/01 09:48:13;;;;;;;2.50;0.52;;;;;;;20.25;81.35;95571.06;4983940;28;20180;-80
2023/09/01 09:50:39;;;;;;;0.60;0.50;;;;;;;19.86;80.68;95577.22;4982723;28;20204;-81
2023/09/01 09:53:05;;;;;;;0.90;0.80;;;;;;;20.09;80.65;95578.41;4967682;28;20210;-80
2023/09/01 09:55:32;;;;;;;0.70;0.57;;;;;;;19.96;80.85;95578.41;4978555;28;20296;-81
2023/09/01 09:58:08;;;;;;;0.98;0.70;;;;;;;20.36;78.35;95578.34;4984008;28;20251;-81
2023/09/01 10:00:40;;;;;;;0.50;0.50;;;;;;;20.52;76.98;95572.66;4983354;28;20184;-82
2023/09/01 10:03:07;;;;;;;0.60;0.60;;;;;;;20.42;76.87;95587.25;4991149;28;20191;-81
2023/09/01 10:05:33;;;;;;;0.60;0.60;;;;;;;20.80;74.91;95580.22;4981616;28;20267;-80
2023/09/01 10:08:02;;;;;;;1.23;0.60;;;;;;;21.10;73.31;95575.19;4982413;28;20184;-80
2023/09/01 10:10:27;;;;;;;1.02;0.60;;;;;;;21.32;72.93;95573.06;4969836;28;20184;-81
2023/09/01 10:12:53;;;;;;;1.48;0.60;;;;;;;21.44;73.53;95576.63;4987861;28;20232;-80
2023/09/01 10:15:19;;;;;;;0.85;0.60;;;;;;;21.19;72.56;95573.91;4971050;28;20203;-82
2023/09/01 10:17:46;;;;;;;1.50;0.90;;;;;;;21.23;73.15;95573.50;4972732;28;20216;-80
2023/09/01 10:20:12;;;;;;;1.95;0.70;;;;;;;21.40;73.03;95579.94;4992205;28;20274;-83
2023/09/01 10:22:40;;;;;;;0.70;0.70;;;;;;;21.67;71.31;95573.41;4984446;28;20192;-82
2023/09/01 10:25:10;;;;;;;0.90;0.70;;;;;;;21.47;71.92;95580.69;4985639;28;20187;-82
2023/09/01 10:27:36;;;;;;;1.25;0.82;;;;;;;21.31;70.49;95573.28;4981780;28;20258;-82
2023/09/01 10:30:22;;;;;;;0.80;0.70;;;;;;;21.16;71.57;95579.63;4989093;28;20295;-80
2023/09/01 10:32:47;;;;;;;1.70;0.77;;;;;;;21.23;71.61;95573.50;5000971;28;20662;-82
2023/09/01 10:35:13;;;;;;;2.65;0.85;;;;;;;21.18;71.46;95576.78;4975173;28;20222;-81
2023/09/01 10:37:38;;;;;;;1.75;0.70;;;;;;;21.17;70.85;95568.03;4978855;28;20195;-83
2023/09/01 10:40:42;;;;;;;0.70;0.70;;;;;;;21.47;69.44;95573.56;4991281;28;20308;-80
2023/09/01 10:43:07;;;;;;;1.50;1.08;;;;;;;21.71;69.87;95576.41;4988588;28;20279;-81
2023/09/01 10:45:32;;;;;;;0.90;0.90;;;;;;;21.74;69.31;95568.88;4973690;28;20192;-80
2023/09/01 10:47:58;;;;;;;1.40;0.93;;;;;;;21.42;71.89;95578.69;4970108;28;20191;-83
2023/09/01 10:50:23;;;;;;;1.35;0.90;;;;;;;22.00;70.61;95572.31;4970822;28;20218;-80
2023/09/01 10:53:26;;;;;;;1.88;1.05;;;;;;;22.48;69.22;95576.94;4982908;28;20194;-83
2023/09/01 10:56:23;;;;;;;1.48;0.80;;;;;;;22.25;68.82;95573.09;4977762;28;20188;-81
2023/09/01 10:58:52;;;;;;;1.95;1.10;;;;;;;22.55;68.54;95582.97;4995319;28;20417;-82
2023/09/01 11:01:38;;;;;;;2.25;1.05;;;;;;;22.76;66.67;95574.56;4985161;28;20176;-79
2023/09/01 11:04:27;;;;;;;1.05;0.95;;;;;;;22.71;66.36;95576.28;4992596;28;20184;-86
2023/09/01 11:06:59;;;;;;;1.02;0.90;;;;;;;22.24;67.31;95587.34;4988519;28;20601;-83
2023/09/01 11:09:33;;;;;;;1.20;1.10;;;;;;;22.56;66.89;95579.28;4995867;28;20265;-81
2023/09/01 11:11:59;;;;;;;1.23;1.00;;;;;;;22.64;66.40;95572.88;4989591;28;20199;-83
2023/09/01 11:14:25;;;;;;;1.17;1.08;;;;;;;23.17;65.75;95575.69;4988441;28;20230;-81
2023/09/01 11:16:50;;;;;;;1.88;0.80;;;;;;;23.12;65.56;95576.34;4977989;28;20740;-81
2023/09/01 11:19:15;;;;;;;1.33;1.00;;;;;;;23.10;64.25;95575.78;4983515;28;20270;-80
2023/09/01 11:21:41;;;;;;;2.90;0.98;;;;;;;23.21;63.72;95579.47;4969394;28;20184;-81
2023/09/01 11:24:07;;;;;;;3.17;1.17;;;;;;;23.32;62.64;95570.78;4976832;28;20189;-82
2023/09/01 11:26:36;;;;;;;1.83;1.10;;;;;;;23.01;62.88;95578.97;4993217;28;20241;-83
2023/09/01 11:29:02;;;;;;;1.40;1.20;;;;;;;22.89;63.66;95574.44;4978810;28;20204;-83
2023/09/01 11:31:39;;;;;;;1.67;1.00;;;;;;;23.70;61.84;95582.88;4989565;28;20187;-83
2023/09/01 11:34:04;;;;;;;0.80;0.80;;;;;;;23.51;60.95;95576.00;4976761;28;20932;-82
2023/09/01 11:36:30;;;;;;;1.25;1.00;;;;;;;23.86;59.95;95568.13;4983243;28;20266;-83
2023/09/01 11:38:55;;;;;;;1.10;1.00;;;;;;;24.00;59.88;95569.50;4979706;28;20761;-82